createdAt,value
2023-01-27T00:00:24.899Z,1025.18
2023-01-27T00:01:28.363Z,1025.21
2023-01-27T00:02:31.928Z,1025.17
2023-01-27T00:04:08.989Z,1025.18
2023-01-27T00:05:12.461Z,1025.19
2023-01-27T00:06:15.962Z,1025.23
2023-01-27T00:07:51.453Z,1025.23
2023-01-27T00:08:55.094Z,1025.19
2023-01-27T00:09:58.661Z,1025.17
2023-01-27T00:11:34.921Z,1025.19
2023-01-27T00:12:38.128Z,1025.17
2023-01-27T00:13:41.731Z,1025.21
2023-01-27T00:15:17.377Z,1025.16
2023-01-27T00:16:21.299Z,1025.13
2023-01-27T00:17:24.924Z,1025.12
2023-01-27T00:19:00.673Z,1025.12
2023-01-27T00:20:04.164Z,1025.06
2023-01-27T00:21:07.969Z,1025.14
2023-01-27T00:22:43.585Z,1025.15
2023-01-27T00:23:46.972Z,1025.17
2023-01-27T00:24:50.657Z,1025.17
2023-01-27T00:26:26.562Z,1025.18
2023-01-27T00:27:30.157Z,1025.17
2023-01-27T00:28:34.428Z,1025.17
2023-01-27T00:30:10.450Z,1025.18
2023-01-27T00:31:14.633Z,1025.20
2023-01-27T00:32:18.215Z,1025.21
2023-01-27T00:33:54.086Z,1025.24
2023-01-27T00:34:57.636Z,1025.23
2023-01-27T00:36:01.168Z,1025.23
2023-01-27T00:37:37.057Z,1025.24
2023-01-27T00:38:40.782Z,1025.24
2023-01-27T00:39:44.311Z,1025.27
2023-01-27T00:41:20.193Z,1025.26
2023-01-27T00:42:23.658Z,1025.24
2023-01-27T00:43:27.071Z,1025.31
2023-01-27T00:45:03.158Z,1025.28
2023-01-27T00:46:06.602Z,1025.31
2023-01-27T00:47:10.473Z,1025.34
2023-01-27T00:48:45.983Z,1025.32
2023-01-27T00:49:49.639Z,1025.32
2023-01-27T00:50:53.107Z,1025.32
2023-01-27T00:52:28.768Z,1025.37
2023-01-27T00:53:32.109Z,1025.34
2023-01-27T00:54:35.566Z,1025.32
2023-01-27T00:56:11.220Z,1025.34
2023-01-27T00:57:14.812Z,1025.28
2023-01-27T00:58:18.532Z,1025.29
2023-01-27T00:59:54.255Z,1025.33
2023-01-27T01:00:24.611Z,1025.33
2023-01-27T01:01:28.376Z,1025.31
2023-01-27T01:02:32.573Z,1025.35
2023-01-27T01:04:08.847Z,1025.33
2023-01-27T01:05:12.498Z,1025.39
2023-01-27T01:06:15.939Z,1025.37
2023-01-27T01:07:51.777Z,1025.35
2023-01-27T01:08:55.307Z,1025.35
2023-01-27T01:09:58.843Z,1025.42
2023-01-27T01:11:34.849Z,1025.36
2023-01-27T01:12:38.382Z,1025.40
2023-01-27T01:13:42.095Z,1025.38
2023-01-27T01:15:20.496Z,1025.39
2023-01-27T01:16:24.535Z,1025.36
2023-01-27T01:17:28.226Z,1025.40
2023-01-27T01:19:04.020Z,1025.40
2023-01-27T01:20:07.581Z,1025.43
2023-01-27T01:21:11.483Z,1025.42
2023-01-27T01:22:47.249Z,1025.49
2023-01-27T01:23:50.911Z,1025.47
2023-01-27T01:24:54.783Z,1025.47
2023-01-27T01:26:30.770Z,1025.46
2023-01-27T01:27:34.220Z,1025.48
2023-01-27T01:28:37.679Z,1025.52
2023-01-27T01:30:13.660Z,1025.57
2023-01-27T01:31:18.099Z,1025.56
2023-01-27T01:32:21.818Z,1025.58
2023-01-27T01:33:57.716Z,1025.53
2023-01-27T01:35:01.081Z,1025.63
2023-01-27T01:36:04.685Z,1025.61
2023-01-27T01:37:40.146Z,1025.65
2023-01-27T01:38:43.803Z,1025.65
2023-01-27T01:39:47.480Z,1025.66
2023-01-27T01:41:24.127Z,1025.63
2023-01-27T01:42:27.936Z,1025.69
2023-01-27T01:43:31.604Z,1025.67
2023-01-27T01:45:07.188Z,1025.64
2023-01-27T01:46:10.794Z,1025.67
2023-01-27T01:47:14.502Z,1025.68
2023-01-27T01:48:49.889Z,1025.72
2023-01-27T01:49:53.345Z,1025.74
2023-01-27T01:50:57.459Z,1025.67
2023-01-27T01:52:33.311Z,1025.68
2023-01-27T01:53:36.642Z,1025.74
2023-01-27T01:54:40.273Z,1025.69
2023-01-27T01:56:15.899Z,1025.68
2023-01-27T01:57:21.108Z,1025.75
2023-01-27T01:58:26.637Z,1025.73
2023-01-27T02:00:24.189Z,1025.71
2023-01-27T02:01:27.906Z,1025.71
2023-01-27T02:02:34.022Z,1025.77
2023-01-27T02:04:09.932Z,1025.73
2023-01-27T02:05:13.778Z,1025.69
2023-01-27T02:06:17.368Z,1025.72
2023-01-27T02:07:53.161Z,1025.69
2023-01-27T02:08:56.819Z,1025.77
2023-01-27T02:10:00.097Z,1025.75
2023-01-27T02:11:35.988Z,1025.75
2023-01-27T02:12:39.764Z,1025.78
2023-01-27T02:13:43.474Z,1025.77
2023-01-27T02:15:19.810Z,1025.79
2023-01-27T02:16:23.659Z,1025.80
2023-01-27T02:17:27.555Z,1025.81
2023-01-27T02:19:03.523Z,1025.87
2023-01-27T02:20:07.272Z,1025.81
2023-01-27T02:21:10.970Z,1025.84
2023-01-27T02:22:47.518Z,1025.82
2023-01-27T02:23:51.028Z,1025.79
2023-01-27T02:24:54.879Z,1025.81
2023-01-27T02:26:31.302Z,1025.85
2023-01-27T02:27:34.789Z,1025.84
2023-01-27T02:28:38.499Z,1025.85
2023-01-27T02:30:14.029Z,1025.82
2023-01-27T02:31:18.580Z,1025.82
2023-01-27T02:32:22.875Z,1025.86
2023-01-27T02:33:58.952Z,1025.86
2023-01-27T02:35:02.835Z,1025.83
2023-01-27T02:36:07.074Z,1025.81
2023-01-27T02:37:42.822Z,1025.83
2023-01-27T02:38:46.705Z,1025.84
2023-01-27T02:39:50.339Z,1025.88
2023-01-27T02:41:26.108Z,1025.86
2023-01-27T02:42:29.539Z,1025.80
2023-01-27T02:43:33.148Z,1025.83
2023-01-27T02:45:08.816Z,1025.82
2023-01-27T02:46:13.003Z,1025.81
2023-01-27T02:47:16.970Z,1025.81
2023-01-27T02:48:52.876Z,1025.84
2023-01-27T02:49:56.078Z,1025.88
2023-01-27T02:50:59.764Z,1025.87
2023-01-27T02:52:35.409Z,1025.85
2023-01-27T02:53:38.911Z,1025.85
2023-01-27T02:54:42.514Z,1025.85
2023-01-27T02:56:18.469Z,1025.85
2023-01-27T02:57:22.261Z,1025.85
2023-01-27T02:58:25.949Z,1025.85
2023-01-27T03:00:01.596Z,1025.85
2023-01-27T03:00:24.171Z,1025.82
2023-01-27T03:01:27.907Z,1025.85
2023-01-27T03:02:31.940Z,1025.86
2023-01-27T03:04:07.940Z,1025.85
2023-01-27T03:05:12.040Z,1025.83
2023-01-27T03:06:15.949Z,1025.87
2023-01-27T03:07:51.654Z,1025.86
2023-01-27T03:08:55.228Z,1025.83
2023-01-27T03:09:58.908Z,1025.85
2023-01-27T03:11:34.616Z,1025.81
2023-01-27T03:12:37.966Z,1025.84
2023-01-27T03:13:41.411Z,1025.88
2023-01-27T03:15:17.890Z,1025.89
2023-01-27T03:16:24.756Z,1025.88
2023-01-27T03:17:28.210Z,1025.89
2023-01-27T03:19:03.784Z,1025.90
2023-01-27T03:20:07.322Z,1025.90
2023-01-27T03:21:10.731Z,1025.93
2023-01-27T03:22:46.416Z,1025.98
2023-01-27T03:23:49.935Z,1025.93
2023-01-27T03:24:53.584Z,1025.95
2023-01-27T03:26:30.010Z,1025.92
2023-01-27T03:27:33.739Z,1025.92
2023-01-27T03:28:37.258Z,1025.96
2023-01-27T03:30:13.056Z,1026.01
2023-01-27T03:31:16.997Z,1025.97
2023-01-27T03:32:21.083Z,1025.99
2023-01-27T03:33:57.248Z,1025.99
2023-01-27T03:35:00.962Z,1026.05
2023-01-27T03:36:04.936Z,1026.03
2023-01-27T03:37:40.519Z,1026.01
2023-01-27T03:38:44.332Z,1026.00
2023-01-27T03:39:48.101Z,1025.94
2023-01-27T03:41:23.709Z,1025.95
2023-01-27T03:42:27.089Z,1025.99
2023-01-27T03:43:30.258Z,1025.99
2023-01-27T03:45:06.020Z,1025.99
2023-01-27T03:46:10.248Z,1025.98
2023-01-27T03:47:13.959Z,1025.96
2023-01-27T03:48:49.585Z,1025.97
2023-01-27T03:49:53.037Z,1025.96
2023-01-27T03:50:56.679Z,1025.98
2023-01-27T03:52:32.239Z,1026.00
2023-01-27T03:53:35.951Z,1025.96
2023-01-27T03:54:39.404Z,1026.01
2023-01-27T03:56:15.422Z,1026.02
2023-01-27T03:57:19.049Z,1026.06
2023-01-27T03:58:22.846Z,1026.06
2023-01-27T03:59:58.810Z,1026.04
2023-01-27T04:00:23.898Z,1026.04
2023-01-27T04:01:27.721Z,1026.00
2023-01-27T04:02:31.909Z,1026.02
2023-01-27T04:04:08.043Z,1026.07
2023-01-27T04:05:12.182Z,1026.07
2023-01-27T04:06:15.908Z,1026.08
2023-01-27T04:07:51.982Z,1026.11
2023-01-27T04:08:55.470Z,1026.12
2023-01-27T04:09:59.135Z,1026.16
2023-01-27T04:11:37.653Z,1026.13
2023-01-27T04:12:41.228Z,1026.13
2023-01-27T04:13:45.021Z,1026.13
2023-01-27T04:15:21.167Z,1026.12
2023-01-27T04:16:24.761Z,1026.10
2023-01-27T04:17:28.194Z,1026.10
2023-01-27T04:19:03.936Z,1026.10
2023-01-27T04:20:07.328Z,1026.11
2023-01-27T04:21:10.711Z,1026.15
2023-01-27T04:22:46.330Z,1026.18
2023-01-27T04:23:49.566Z,1026.19
2023-01-27T04:24:53.318Z,1026.14
2023-01-27T04:26:31.736Z,1026.16
2023-01-27T04:27:35.439Z,1026.15
2023-01-27T04:28:55.140Z,1026.16
2023-01-27T04:30:30.624Z,1026.18
2023-01-27T04:31:35.002Z,1026.22
2023-01-27T04:32:39.035Z,1026.22
2023-01-27T04:34:15.752Z,1026.19
2023-01-27T04:35:21.529Z,1026.18
2023-01-27T04:36:36.848Z,1026.21
2023-01-27T04:38:12.932Z,1026.24
2023-01-27T04:39:17.592Z,1026.21
2023-01-27T04:40:21.287Z,1026.24
2023-01-27T04:41:56.984Z,1026.16
2023-01-27T04:43:01.061Z,1026.19
2023-01-27T04:44:04.889Z,1026.18
2023-01-27T04:45:41.213Z,1026.19
2023-01-27T04:46:45.142Z,1026.24
2023-01-27T04:47:48.552Z,1026.24
2023-01-27T04:49:24.162Z,1026.25
2023-01-27T04:50:27.555Z,1026.25
2023-01-27T04:51:31.035Z,1026.26
2023-01-27T04:53:06.948Z,1026.27
2023-01-27T04:54:10.725Z,1026.29
2023-01-27T04:55:14.433Z,1026.27
2023-01-27T04:56:50.389Z,1026.28
2023-01-27T04:57:53.868Z,1026.28
2023-01-27T04:58:57.275Z,1026.27
2023-01-27T05:00:23.395Z,1026.30
2023-01-27T05:01:27.235Z,1026.26
2023-01-27T05:02:31.116Z,1026.23
2023-01-27T05:04:07.313Z,1026.20
2023-01-27T05:05:52.854Z,1026.24
2023-01-27T05:06:56.735Z,1026.26
2023-01-27T05:08:00.561Z,1026.28
2023-01-27T05:09:36.617Z,1026.29
2023-01-27T05:10:40.402Z,1026.28
2023-01-27T05:11:44.302Z,1026.24
2023-01-27T05:13:20.557Z,1026.27
2023-01-27T05:14:24.280Z,1026.25
2023-01-27T05:15:30.485Z,1026.25
2023-01-27T05:17:07.564Z,1026.27
2023-01-27T05:18:11.327Z,1026.25
2023-01-27T05:19:14.956Z,1026.29
2023-01-27T05:20:51.580Z,1026.24
2023-01-27T05:21:56.049Z,1026.22
2023-01-27T05:22:59.840Z,1026.25
2023-01-27T05:24:35.793Z,1026.30
2023-01-27T05:25:40.228Z,1026.32
2023-01-27T05:26:43.919Z,1026.30
2023-01-27T05:28:19.668Z,1026.30
2023-01-27T05:29:24.980Z,1026.32
2023-01-27T05:30:28.634Z,1026.29
2023-01-27T05:32:05.610Z,1026.30
2023-01-27T05:33:09.535Z,1026.31
2023-01-27T05:34:13.211Z,1026.31
2023-01-27T05:35:49.325Z,1026.33
2023-01-27T05:36:53.202Z,1026.35
2023-01-27T05:37:57.001Z,1026.39
2023-01-27T05:39:33.420Z,1026.34
2023-01-27T05:40:37.132Z,1026.33
2023-01-27T05:41:40.947Z,1026.39
2023-01-27T05:43:17.103Z,1026.42
2023-01-27T05:44:20.919Z,1026.41
2023-01-27T05:45:25.271Z,1026.41
2023-01-27T05:47:01.723Z,1026.43
2023-01-27T05:48:05.398Z,1026.42
2023-01-27T05:49:08.960Z,1026.46
2023-01-27T05:50:45.152Z,1026.42
2023-01-27T05:51:48.833Z,1026.40
2023-01-27T05:52:52.607Z,1026.45
2023-01-27T05:54:28.852Z,1026.46
2023-01-27T05:55:32.595Z,1026.43
2023-01-27T05:56:36.414Z,1026.44
2023-01-27T05:58:14.449Z,1026.47
2023-01-27T05:59:18.212Z,1026.52
2023-01-27T06:00:24.330Z,1026.49
2023-01-27T06:01:28.273Z,1026.50
2023-01-27T06:02:35.152Z,1026.54
2023-01-27T06:04:11.425Z,1026.53
2023-01-27T06:05:15.705Z,1026.55
2023-01-27T06:06:19.473Z,1026.55
2023-01-27T06:07:57.654Z,1026.57
2023-01-27T06:09:01.548Z,1026.55
2023-01-27T06:10:05.422Z,1026.58
2023-01-27T06:11:41.685Z,1026.65
2023-01-27T06:12:45.831Z,1026.64
2023-01-27T06:13:49.621Z,1026.66
2023-01-27T06:15:26.082Z,1026.68
2023-01-27T06:16:30.254Z,1026.65
2023-01-27T06:17:34.491Z,1026.70
2023-01-27T06:19:12.018Z,1026.78
2023-01-27T06:20:15.719Z,1026.76
2023-01-27T06:21:19.503Z,1026.77
2023-01-27T06:22:55.551Z,1026.77
2023-01-27T06:23:59.713Z,1026.84
2023-01-27T06:25:06.124Z,1026.88
2023-01-27T06:26:42.972Z,1026.88
2023-01-27T06:27:46.796Z,1026.89
2023-01-27T06:28:50.861Z,1026.88
2023-01-27T06:30:27.101Z,1026.91
2023-01-27T06:31:31.543Z,1026.84
2023-01-27T06:32:35.656Z,1026.92
2023-01-27T06:34:13.037Z,1026.90
2023-01-27T06:35:17.405Z,1026.89
2023-01-27T06:36:21.277Z,1026.91
2023-01-27T06:37:57.698Z,1026.92
2023-01-27T06:39:04.578Z,1026.90
2023-01-27T06:40:08.338Z,1026.92
2023-01-27T06:41:44.981Z,1026.85
2023-01-27T06:42:48.897Z,1026.89
2023-01-27T06:43:52.627Z,1026.92
2023-01-27T06:45:28.669Z,1026.96
2023-01-27T06:46:32.741Z,1026.96
2023-01-27T06:47:36.912Z,1026.93
2023-01-27T06:49:13.013Z,1026.85
2023-01-27T06:50:17.765Z,1026.87
2023-01-27T06:51:21.657Z,1026.91
2023-01-27T06:52:57.675Z,1026.94
2023-01-27T06:54:01.434Z,1026.94
2023-01-27T06:55:05.151Z,1026.93
2023-01-27T06:56:41.447Z,1026.88
2023-01-27T06:57:45.573Z,1026.91
2023-01-27T06:58:49.432Z,1026.90
2023-01-27T07:00:24.660Z,1026.95
2023-01-27T07:01:28.962Z,1027.02
2023-01-27T07:02:33.067Z,1027.01
2023-01-27T07:04:09.694Z,1027.05
2023-01-27T07:05:13.542Z,1027.03
2023-01-27T07:06:17.418Z,1027.06
2023-01-27T07:07:53.546Z,1027.06
2023-01-27T07:09:00.521Z,1027.09
2023-01-27T07:10:04.644Z,1027.08
2023-01-27T07:11:41.132Z,1027.10
2023-01-27T07:12:45.075Z,1027.12
2023-01-27T07:13:48.860Z,1027.09
2023-01-27T07:15:24.986Z,1027.14
2023-01-27T07:16:29.282Z,1027.15
2023-01-27T07:17:33.099Z,1027.15
2023-01-27T07:19:09.947Z,1027.15
2023-01-27T07:20:14.397Z,1027.14
2023-01-27T07:21:18.326Z,1027.12
2023-01-27T07:22:54.518Z,1027.16
2023-01-27T07:23:58.772Z,1027.14
2023-01-27T07:25:02.858Z,1027.16
2023-01-27T07:26:39.066Z,1027.16
2023-01-27T07:27:42.932Z,1027.15
2023-01-27T07:28:46.759Z,1027.16
2023-01-27T07:30:23.275Z,1027.21
2023-01-27T07:31:28.221Z,1027.14
2023-01-27T07:32:34.267Z,1027.16
2023-01-27T07:34:10.605Z,1027.11
2023-01-27T07:35:14.415Z,1027.14
2023-01-27T07:36:18.215Z,1027.15
2023-01-27T07:37:54.366Z,1027.12
2023-01-27T07:38:58.277Z,1027.11
2023-01-27T07:40:02.217Z,1027.18
2023-01-27T07:41:39.123Z,1027.23
2023-01-27T07:42:43.055Z,1027.26
2023-01-27T07:43:46.783Z,1027.21
2023-01-27T07:45:23.293Z,1027.30
2023-01-27T07:46:27.334Z,1027.26
2023-01-27T07:47:30.978Z,1027.31
2023-01-27T07:49:07.168Z,1027.34
2023-01-27T07:50:14.307Z,1027.37
2023-01-27T07:51:18.389Z,1027.38
2023-01-27T07:52:54.430Z,1027.38
2023-01-27T07:53:59.677Z,1027.36
2023-01-27T07:55:04.483Z,1027.39
2023-01-27T07:56:40.852Z,1027.38
2023-01-27T07:57:44.635Z,1027.38
2023-01-27T07:58:48.334Z,1027.34
2023-01-27T08:00:24.785Z,1027.43
2023-01-27T08:01:28.690Z,1027.41
2023-01-27T08:02:34.822Z,1027.37
2023-01-27T08:04:11.176Z,1027.41
2023-01-27T08:05:14.982Z,1027.46
2023-01-27T08:06:19.008Z,1027.47
2023-01-27T08:07:57.122Z,1027.49
2023-01-27T08:09:02.411Z,1027.51
2023-01-27T08:10:06.327Z,1027.53
2023-01-27T08:11:42.854Z,1027.50
2023-01-27T08:12:46.698Z,1027.49
2023-01-27T08:13:50.580Z,1027.48
2023-01-27T08:15:30.332Z,1027.51
2023-01-27T08:16:34.395Z,1027.53
2023-01-27T08:17:38.415Z,1027.51
2023-01-27T08:19:14.633Z,1027.52
2023-01-27T08:20:18.837Z,1027.49
2023-01-27T08:21:22.754Z,1027.49
2023-01-27T08:22:58.803Z,1027.52
2023-01-27T08:24:02.717Z,1027.59
2023-01-27T08:25:06.810Z,1027.61
2023-01-27T08:26:42.929Z,1027.67
2023-01-27T08:27:46.809Z,1027.70
2023-01-27T08:28:50.422Z,1027.68
2023-01-27T08:30:27.238Z,1027.69
2023-01-27T08:31:31.424Z,1027.68
2023-01-27T08:32:35.515Z,1027.73
2023-01-27T08:34:11.605Z,1027.77
2023-01-27T08:35:15.350Z,1027.81
2023-01-27T08:36:19.255Z,1027.78
2023-01-27T08:37:55.277Z,1027.73
2023-01-27T08:38:59.055Z,1027.74
2023-01-27T08:40:02.936Z,1027.72
2023-01-27T08:41:39.412Z,1027.69
2023-01-27T08:42:43.409Z,1027.66
2023-01-27T08:43:47.243Z,1027.75
2023-01-27T08:45:23.342Z,1027.69
2023-01-27T08:46:27.292Z,1027.65
2023-01-27T08:47:31.786Z,1027.68
2023-01-27T08:49:10.372Z,1027.74
2023-01-27T08:50:14.359Z,1027.78
2023-01-27T08:51:18.442Z,1027.69
2023-01-27T08:52:54.434Z,1027.75
2023-01-27T08:53:58.213Z,1027.70
2023-01-27T08:55:02.014Z,1027.72
2023-01-27T08:56:38.054Z,1027.75
2023-01-27T08:57:43.022Z,1027.77
2023-01-27T08:58:46.809Z,1027.73
2023-01-27T09:00:24.595Z,1027.75
2023-01-27T09:01:28.670Z,1027.78
2023-01-27T09:02:32.681Z,1027.77
2023-01-27T09:04:11.167Z,1027.80
2023-01-27T09:05:15.056Z,1027.86
2023-01-27T09:06:18.789Z,1027.86
2023-01-27T09:07:54.781Z,1027.90
2023-01-27T09:08:58.623Z,1027.92
2023-01-27T09:10:24.416Z,1027.89
2023-01-27T09:12:00.579Z,1027.93
2023-01-27T09:13:04.415Z,1027.94
2023-01-27T09:14:08.284Z,1027.96
2023-01-27T09:15:44.485Z,1027.97
2023-01-27T09:16:48.435Z,1028.03
2023-01-27T09:17:52.205Z,1028.05
2023-01-27T09:19:31.230Z,1028.08
2023-01-27T09:20:35.119Z,1028.06
2023-01-27T09:21:38.863Z,1028.18
2023-01-27T09:23:14.733Z,1028.12
2023-01-27T09:24:18.589Z,1028.06
2023-01-27T09:25:22.508Z,1028.12
2023-01-27T09:27:00.882Z,1028.14
2023-01-27T09:28:16.502Z,1028.10
2023-01-27T09:29:20.362Z,1028.20
2023-01-27T09:30:58.221Z,1028.17
2023-01-27T09:32:02.694Z,1028.21
2023-01-27T09:33:06.657Z,1028.25
2023-01-27T09:34:42.857Z,1028.28
2023-01-27T09:35:46.746Z,1028.22
2023-01-27T09:36:50.695Z,1028.29
2023-01-27T09:38:26.692Z,1028.23
2023-01-27T09:39:30.436Z,1028.25
2023-01-27T09:40:34.373Z,1028.29
2023-01-27T09:42:11.356Z,1028.23
2023-01-27T09:43:16.285Z,1028.25
2023-01-27T09:44:20.012Z,1028.25
2023-01-27T09:45:56.427Z,1028.22
2023-01-27T09:47:00.437Z,1028.11
2023-01-27T09:48:04.271Z,1028.20
2023-01-27T09:49:40.214Z,1028.14
2023-01-27T09:50:43.892Z,1028.12
2023-01-27T09:51:50.613Z,1028.20
2023-01-27T09:53:44.649Z,1028.24
2023-01-27T09:54:48.459Z,1028.25
2023-01-27T09:55:52.311Z,1028.26
2023-01-27T09:57:31.375Z,1028.31
2023-01-27T09:58:36.430Z,1028.31
2023-01-27T09:59:42.207Z,1028.31
2023-01-27T10:00:24.929Z,1028.27
2023-01-27T10:01:28.922Z,1028.29
2023-01-27T10:02:33.082Z,1028.29
2023-01-27T10:04:09.296Z,1028.32
2023-01-27T10:05:13.346Z,1028.31
2023-01-27T10:06:17.036Z,1028.27
2023-01-27T10:07:53.875Z,1028.28
2023-01-27T10:08:57.651Z,1028.29
2023-01-27T10:10:01.569Z,1028.31
2023-01-27T10:11:38.123Z,1028.27
2023-01-27T10:12:41.989Z,1028.28
2023-01-27T10:13:45.674Z,1028.23
2023-01-27T10:15:21.953Z,1028.26
2023-01-27T10:16:25.949Z,1028.21
2023-01-27T10:17:29.913Z,1028.23
2023-01-27T10:19:06.233Z,1028.20
2023-01-27T10:20:10.011Z,1028.26
2023-01-27T10:21:14.095Z,1028.30
2023-01-27T10:22:52.374Z,1028.27
2023-01-27T10:23:56.361Z,1028.27
2023-01-27T10:25:00.356Z,1028.27
2023-01-27T10:26:36.525Z,1028.30
2023-01-27T10:27:40.548Z,1028.37
2023-01-27T10:28:44.493Z,1028.34
2023-01-27T10:30:21.368Z,1028.26
2023-01-27T10:31:25.617Z,1028.23
2023-01-27T10:32:29.658Z,1028.28
2023-01-27T10:34:05.995Z,1028.24
2023-01-27T10:35:09.688Z,1028.32
2023-01-27T10:36:13.668Z,1028.25
2023-01-27T10:37:49.629Z,1028.25
2023-01-27T10:38:53.411Z,1028.28
2023-01-27T10:39:57.335Z,1028.31
2023-01-27T10:41:34.076Z,1028.28
2023-01-27T10:42:37.949Z,1028.24
2023-01-27T10:43:41.844Z,1028.33
2023-01-27T10:45:20.519Z,1028.32
2023-01-27T10:46:24.538Z,1028.30
2023-01-27T10:47:28.601Z,1028.23
2023-01-27T10:49:04.703Z,1028.24
2023-01-27T10:50:08.828Z,1028.23
2023-01-27T10:51:13.216Z,1028.19
2023-01-27T10:52:49.395Z,1028.16
2023-01-27T10:53:53.101Z,1028.16
2023-01-27T10:54:56.905Z,1028.19
2023-01-27T10:56:32.992Z,1028.17
2023-01-27T10:57:36.985Z,1028.16
2023-01-27T10:58:40.884Z,1028.16
2023-01-27T11:01:27.489Z,1028.20
2023-01-27T11:02:31.836Z,1028.14
2023-01-27T11:03:35.673Z,1028.14
2023-01-27T11:05:12.626Z,1028.16
2023-01-27T11:06:16.475Z,1028.17
2023-01-27T11:07:20.434Z,1028.15
2023-01-27T11:08:56.711Z,1028.18
2023-01-27T11:10:00.468Z,1028.16
2023-01-27T11:11:04.662Z,1028.13
2023-01-27T11:12:40.794Z,1028.09
2023-01-27T11:13:44.673Z,1028.09
2023-01-27T11:14:50.478Z,1028.11
2023-01-27T11:16:26.830Z,1028.05
2023-01-27T11:17:30.879Z,1028.12
2023-01-27T11:18:34.631Z,1028.08
2023-01-27T11:20:11.067Z,1028.07
2023-01-27T11:21:15.290Z,1028.07
2023-01-27T11:22:20.713Z,1028.05
2023-01-27T11:23:56.941Z,1028.10
2023-01-27T11:25:01.130Z,1028.08
2023-01-27T11:26:05.027Z,1028.03
2023-01-27T11:27:42.841Z,1028.07
2023-01-27T11:28:46.760Z,1028.03
2023-01-27T11:29:50.709Z,1028.05
2023-01-27T11:31:27.809Z,1028.03
2023-01-27T11:32:35.699Z,1028.00
2023-01-27T11:33:39.567Z,1028.02
2023-01-27T11:35:15.782Z,1027.97
2023-01-27T11:36:19.749Z,1027.99
2023-01-27T11:37:23.552Z,1027.97
2023-01-27T11:39:13.527Z,1027.96
2023-01-27T11:40:17.928Z,1027.96
2023-01-27T11:41:21.714Z,1027.93
2023-01-27T11:42:57.921Z,1027.93
2023-01-27T11:44:01.773Z,1027.87
2023-01-27T11:45:05.652Z,1027.90
2023-01-27T11:46:42.224Z,1027.84
2023-01-27T11:47:45.977Z,1027.91
2023-01-27T11:48:49.726Z,1027.87
2023-01-27T11:50:26.358Z,1027.89
2023-01-27T11:51:30.138Z,1027.90
2023-01-27T11:52:34.003Z,1027.85
2023-01-27T11:54:10.014Z,1027.87
2023-01-27T11:55:13.805Z,1027.82
2023-01-27T11:56:19.556Z,1027.82
2023-01-27T11:57:55.606Z,1027.79
2023-01-27T11:58:59.367Z,1027.77
2023-01-27T12:00:24.579Z,1027.79
2023-01-27T12:01:29.575Z,1027.77
2023-01-27T12:02:33.465Z,1027.75
2023-01-27T12:04:10.614Z,1027.77
2023-01-27T12:05:14.787Z,1027.81
2023-01-27T12:06:18.616Z,1027.75
2023-01-27T12:07:54.686Z,1027.76
2023-01-27T12:08:58.475Z,1027.74
2023-01-27T12:10:02.228Z,1027.70
2023-01-27T12:11:39.438Z,1027.72
2023-01-27T12:12:43.225Z,1027.75
2023-01-27T12:13:47.115Z,1027.75
2023-01-27T12:15:23.204Z,1027.72
2023-01-27T12:16:27.425Z,1027.73
2023-01-27T12:17:31.403Z,1027.72
2023-01-27T12:19:07.437Z,1027.64
2023-01-27T12:20:11.563Z,1027.67
2023-01-27T12:21:15.554Z,1027.63
2023-01-27T12:22:51.725Z,1027.66
2023-01-27T12:23:55.682Z,1027.69
2023-01-27T12:24:59.753Z,1027.67
2023-01-27T12:26:37.249Z,1027.64
2023-01-27T12:27:41.200Z,1027.69
2023-01-27T12:28:45.106Z,1027.65
2023-01-27T12:30:21.804Z,1027.68
2023-01-27T12:31:26.233Z,1027.62
2023-01-27T12:32:30.490Z,1027.67
2023-01-27T12:34:06.707Z,1027.67
2023-01-27T12:35:10.644Z,1027.69
2023-01-27T12:36:14.436Z,1027.68
2023-01-27T12:37:53.242Z,1027.63
2023-01-27T12:38:57.011Z,1027.66
2023-01-27T12:40:00.850Z,1027.64
2023-01-27T12:41:37.458Z,1027.65
2023-01-27T12:42:41.149Z,1027.60
2023-01-27T12:43:44.908Z,1027.63
2023-01-27T12:45:21.051Z,1027.67
2023-01-27T12:46:25.313Z,1027.67
2023-01-27T12:47:29.419Z,1027.66
2023-01-27T12:49:05.478Z,1027.68
2023-01-27T12:50:09.360Z,1027.66
2023-01-27T12:51:13.922Z,1027.70
2023-01-27T12:52:50.083Z,1027.68
2023-01-27T12:53:54.090Z,1027.68
2023-01-27T12:54:57.881Z,1027.68
2023-01-27T12:56:34.168Z,1027.75
2023-01-27T12:57:37.843Z,1027.77
2023-01-27T12:58:41.670Z,1027.73
2023-01-27T13:00:24.351Z,1027.69
2023-01-27T13:01:28.383Z,1027.69
2023-01-27T13:02:32.510Z,1027.69
2023-01-27T13:04:08.662Z,1027.76
2023-01-27T13:05:12.542Z,1027.70
2023-01-27T13:06:15.917Z,1027.69
2023-01-27T13:07:51.708Z,1027.65
2023-01-27T13:08:55.400Z,1027.66
2023-01-27T13:10:02.158Z,1027.63
2023-01-27T13:11:38.709Z,1027.64
2023-01-27T13:12:42.462Z,1027.63
2023-01-27T13:13:46.036Z,1027.65
2023-01-27T13:15:22.261Z,1027.64
2023-01-27T13:16:26.264Z,1027.65
2023-01-27T13:17:30.272Z,1027.63
2023-01-27T13:19:06.179Z,1027.65
2023-01-27T13:20:09.767Z,1027.63
2023-01-27T13:21:14.137Z,1027.62
2023-01-27T13:22:49.580Z,1027.66
2023-01-27T13:23:53.206Z,1027.65
2023-01-27T13:24:56.808Z,1027.64
2023-01-27T13:26:33.430Z,1027.62
2023-01-27T13:27:37.055Z,1027.59
2023-01-27T13:28:57.677Z,1027.61
2023-01-27T13:30:33.523Z,1027.61
2023-01-27T13:31:39.298Z,1027.63
2023-01-27T13:32:43.305Z,1027.65
2023-01-27T13:34:18.998Z,1027.60
2023-01-27T13:35:22.514Z,1027.65
2023-01-27T13:36:26.007Z,1027.71
2023-01-27T13:38:01.389Z,1027.68
2023-01-27T13:39:05.085Z,1027.68
2023-01-27T13:40:08.593Z,1027.68
2023-01-27T13:41:44.947Z,1027.66
2023-01-27T13:42:48.770Z,1027.73
2023-01-27T13:43:51.939Z,1027.77
2023-01-27T13:45:27.778Z,1027.75
2023-01-27T13:46:31.638Z,1027.74
2023-01-27T13:47:35.591Z,1027.75
2023-01-27T13:49:11.279Z,1027.73
2023-01-27T13:50:15.105Z,1027.76
2023-01-27T13:51:18.761Z,1027.73
2023-01-27T13:52:58.049Z,1027.75
2023-01-27T13:54:01.682Z,1027.75
2023-01-27T13:55:05.124Z,1027.78
2023-01-27T13:56:41.064Z,1027.77
2023-01-27T13:57:44.540Z,1027.80
2023-01-27T13:58:50.274Z,1027.77
2023-01-27T14:00:24.665Z,1027.75
2023-01-27T14:01:28.366Z,1027.77
2023-01-27T14:02:32.311Z,1027.73
2023-01-27T14:04:08.241Z,1027.72
2023-01-27T14:05:12.042Z,1027.74
2023-01-27T14:06:15.619Z,1027.77
2023-01-27T14:07:51.197Z,1027.79
2023-01-27T14:08:54.534Z,1027.82
2023-01-27T14:09:58.157Z,1027.79
2023-01-27T14:11:34.245Z,1027.79
2023-01-27T14:12:37.828Z,1027.81
2023-01-27T14:13:41.501Z,1027.80
2023-01-27T14:15:17.492Z,1027.86
2023-01-27T14:16:21.567Z,1027.89
2023-01-27T14:17:25.346Z,1027.85
2023-01-27T14:19:04.164Z,1027.87
2023-01-27T14:20:07.764Z,1027.86
2023-01-27T14:21:12.763Z,1027.85
2023-01-27T14:23:16.092Z,1027.86
2023-01-27T14:24:20.682Z,1027.87
2023-01-27T14:25:24.543Z,1027.85
2023-01-27T14:27:00.351Z,1027.86
2023-01-27T14:28:08.160Z,1027.90
2023-01-27T14:29:14.146Z,1027.93
2023-01-27T14:30:49.875Z,1027.93
2023-01-27T14:31:54.007Z,1027.92
2023-01-27T14:32:58.065Z,1027.95
2023-01-27T14:34:36.037Z,1027.94
2023-01-27T14:35:39.372Z,1027.93
2023-01-27T14:36:43.054Z,1027.94
2023-01-27T14:38:18.728Z,1027.97
2023-01-27T14:39:22.162Z,1027.92
2023-01-27T14:40:26.413Z,1027.93
2023-01-27T14:42:01.880Z,1027.91
2023-01-27T14:43:05.425Z,1027.89
2023-01-27T14:44:10.391Z,1027.93
2023-01-27T14:46:02.618Z,1027.94
2023-01-27T14:47:06.377Z,1027.95
2023-01-27T14:48:09.811Z,1027.99
2023-01-27T14:49:45.342Z,1027.94
2023-01-27T14:50:49.211Z,1027.95
2023-01-27T14:51:52.790Z,1027.97
2023-01-27T14:53:28.646Z,1027.96
2023-01-27T14:54:32.087Z,1028.02
2023-01-27T14:55:35.674Z,1028.01
2023-01-27T14:57:11.703Z,1028.02
2023-01-27T14:58:15.117Z,1028.04
2023-01-27T14:59:18.716Z,1028.09
2023-01-27T15:00:23.825Z,1028.09
2023-01-27T15:01:27.350Z,1028.09
2023-01-27T15:02:30.967Z,1028.05
2023-01-27T15:04:06.835Z,1028.07